»·PEaware :: VRD554 PHOG-KSEA

VRD554 :: PHOG-KSEA

FLIGHT INFORMATION

Flight Status: Arrived
Operator:
Virgin America
More flights by this operator :: More flights under this callsign
Pilot: Shawn G. (7208)
Aircraft: AIRBUS A320
(A320)
More flights by this aircraft type
Origin: PHOG Kahului
United States
Destination: KSEA Seattle-Tacoma Intl
United States
More flights between these airports :: More routes between these airports
Route: +OGG APACK ZOULU A331 SEDAR LATAY HAWKZ6
File this flight plan on PilotEdge
Remarks:
Altitude:
(Current/Filed)
35,000ft
Speed:
(Current/Filed)
448kts
Departed: 10-Dec-17 10:25 AM
Arrived: 10-Dec-17 03:45 PM
Distance/Time
Traveled:
2293nm/5:20
Distance/Time
To Go:
Arrived

Flight Plot

Page will automatically refresh every two minutes.

Flight plan parsing failed; only flown route is shown


Map Options




Map Legend


Flown Route
Filed Route
Departure Airport
Arrival Airport
Navaid (VOR, NDB)
Fix

Horizontal Profiles

Position Reports

Time Latitude Longitude Heading Altitude Ground
Speed
10-Dec-17 10:09 20.893324 -156.436479 303 63ft 0kts
10-Dec-17 10:10 20.893324 -156.436479 303 63ft 0kts
10-Dec-17 10:11 20.893324 -156.436480 303 63ft 0kts
10-Dec-17 10:12 20.893324 -156.436480 303 63ft 0kts
10-Dec-17 10:13 20.893324 -156.436480 303 63ft 0kts
10-Dec-17 10:14 20.893324 -156.436480 303 63ft 0kts
10-Dec-17 10:15 20.893324 -156.436480 303 63ft 0kts
10-Dec-17 10:16 20.893324 -156.436480 303 63ft 0kts
10-Dec-17 10:17 20.893324 -156.436480 303 63ft 0kts
10-Dec-17 10:18 20.893324 -156.436480 303 63ft 0kts
10-Dec-17 10:19 20.893324 -156.436480 303 63ft 0kts
10-Dec-17 10:20 20.893324 -156.436480 303 63ft 0kts
10-Dec-17 10:21 20.893324 -156.436480 303 63ft 0kts
10-Dec-17 10:22 20.893323 -156.436479 303 63ft 0kts
10-Dec-17 10:23 20.893164 -156.436019 271 63ft 2kts
10-Dec-17 10:24 20.893389 -156.435433 222 63ft 2kts
10-Dec-17 10:25 20.893499 -156.435342 213 63ft 0kts
10-Dec-17 10:26 20.893499 -156.435342 213 63ft 0kts
10-Dec-17 10:27 20.892039 -156.435854 199 63ft 12kts
10-Dec-17 10:28 20.890004 -156.437142 164 63ft 0kts
10-Dec-17 10:29 20.889746 -156.435884 32 63ft 8kts
10-Dec-17 10:30 20.919575 -156.414124 33 1189ft 190kts
10-Dec-17 10:31 20.975901 -156.397342 2 3447ft 251kts
10-Dec-17 10:32 21.050087 -156.395651 2 6303ft 275kts
10-Dec-17 10:33 21.126950 -156.393825 1 9183ft 286kts
10-Dec-17 10:34 21.209949 -156.391762 1 11207ft 325kts
10-Dec-17 10:35 21.306777 -156.389317 1 12741ft 365kts
10-Dec-17 10:36 21.408894 -156.386803 2 14926ft 373kts
10-Dec-17 10:37 21.513205 -156.384201 2 16902ft 380kts
10-Dec-17 10:38 21.619630 -156.381532 2 18696ft 387kts
10-Dec-17 10:39 21.727822 -156.378813 3 20331ft 392kts
10-Dec-17 10:40 21.837386 -156.376055 3 21815ft 398kts
10-Dec-17 10:41 21.948474 -156.373254 3 23171ft 403kts
10-Dec-17 10:42 22.061098 -156.370410 3 24408ft 408kts
10-Dec-17 10:43 22.174759 -156.367536 3 25561ft 413kts
10-Dec-17 10:44 22.289847 -156.364621 3 26635ft 417kts
10-Dec-17 10:45 22.406164 -156.361669 3 27621ft 421kts
10-Dec-17 10:46 22.523374 -156.358688 3 28508ft 425kts
10-Dec-17 10:47 22.641621 -156.355680 2 29434ft 425kts
10-Dec-17 10:48 22.758749 -156.352704 2 30515ft 420kts
10-Dec-17 10:49 22.874593 -156.349743 2 31489ft 416kts
10-Dec-17 10:50 22.989359 -156.346805 0 32392ft 412kts
10-Dec-17 10:51 23.104037 -156.343859 359 33018ft 412kts
10-Dec-17 10:52 23.217706 -156.340941 359 33808ft 409kts
10-Dec-17 10:53 23.330900 -156.338029 359 34435ft 408kts
10-Dec-17 10:54 23.443930 -156.335115 359 34970ft 407kts
10-Dec-17 10:55 23.556492 -156.332211 359 35156ft 403kts
10-Dec-17 10:56 23.668371 -156.329316 359 35158ft 404kts
10-Dec-17 10:58 23.780550 -156.326408 359 35158ft 404kts
10-Dec-17 10:59 23.892581 -156.323503 359 35151ft 404kts
10-Dec-17 11:00 24.004788 -156.320585 359 35139ft 404kts
10-Dec-17 11:01 24.116587 -156.325934 354 35143ft 403kts
10-Dec-17 11:02 24.228274 -156.335699 354 35154ft 404kts
10-Dec-17 11:03 24.340072 -156.345500 354 35155ft 404kts
10-Dec-17 11:04 24.451813 -156.355314 354 35149ft 404kts
10-Dec-17 11:05 24.563406 -156.365134 354 35142ft 403kts
10-Dec-17 11:06 24.674935 -156.374966 354 35139ft 403kts
10-Dec-17 11:07 24.786385 -156.384807 354 35138ft 403kts
10-Dec-17 11:08 24.897806 -156.394665 354 35150ft 403kts
10-Dec-17 11:09 25.008915 -156.404511 354 35149ft 403kts
10-Dec-17 11:10 25.120436 -156.414345 354 35141ft 404kts
10-Dec-17 11:11 25.230241 -156.383137 27 35171ft 429kts
10-Dec-17 11:12 25.321698 -156.296114 35 35193ft 436kts
10-Dec-17 11:13 25.411515 -156.206807 35 35169ft 435kts
10-Dec-17 11:14 25.501330 -156.117271 35 35150ft 434kts
10-Dec-17 11:15 25.590441 -156.028237 35 35144ft 434kts
10-Dec-17 11:16 25.679809 -155.938758 35 35149ft 433kts
10-Dec-17 11:17 25.768974 -155.849292 35 35152ft 434kts
10-Dec-17 11:18 25.858337 -155.759436 35 35156ft 434kts
10-Dec-17 11:19 25.947484 -155.669607 35 35157ft 434kts
10-Dec-17 11:20 26.036326 -155.579893 35 35161ft 434kts
10-Dec-17 11:21 26.125423 -155.489730 35 35162ft 434kts
10-Dec-17 11:22 26.214790 -155.399097 35 35174ft 435kts
10-Dec-17 11:23 26.303798 -155.308630 36 35167ft 435kts
10-Dec-17 11:24 26.392850 -155.217925 36 35162ft 434kts
10-Dec-17 11:25 26.481843 -155.127080 36 35170ft 434kts
10-Dec-17 11:26 26.570571 -155.036307 36 35180ft 434kts
10-Dec-17 11:27 26.659225 -154.945410 36 35183ft 433kts
10-Dec-17 11:28 26.747600 -154.854600 36 35191ft 431kts
10-Dec-17 11:29 26.835240 -154.764348 36 35188ft 429kts
10-Dec-17 11:30 26.923082 -154.673686 36 35163ft 429kts
10-Dec-17 11:31 27.010645 -154.583116 35 35129ft 433kts
10-Dec-17 11:32 27.099555 -154.490942 35 35145ft 439kts
10-Dec-17 11:33 27.189592 -154.397385 35 35220ft 444kts
10-Dec-17 11:34 27.279951 -154.303275 36 35222ft 444kts
10-Dec-17 11:35 27.370368 -154.208891 36 35203ft 443kts
10-Dec-17 11:36 27.460358 -154.114733 36 35178ft 442kts
10-Dec-17 11:37 27.550146 -154.020564 35 35161ft 441kts
10-Dec-17 11:38 27.639719 -153.926401 35 35155ft 441kts
10-Dec-17 11:39 27.729000 -153.832326 35 35158ft 441kts
10-Dec-17 11:40 27.818381 -153.737924 35 35163ft 441kts
10-Dec-17 11:41 27.907729 -153.643330 35 35169ft 441kts
10-Dec-17 11:42 27.997153 -153.548433 35 35170ft 441kts
10-Dec-17 11:43 28.086512 -153.453376 35 35171ft 441kts
10-Dec-17 11:44 28.175776 -153.358194 36 35181ft 442kts
10-Dec-17 11:45 28.265112 -153.262704 36 35177ft 442kts
10-Dec-17 11:46 28.354265 -153.167179 36 35171ft 442kts
10-Dec-17 11:47 28.443165 -153.071696 36 35166ft 442kts
10-Dec-17 11:48 28.532168 -152.975868 36 35179ft 441kts
10-Dec-17 11:49 28.620928 -152.880069 36 35179ft 439kts
10-Dec-17 11:50 28.709267 -152.784491 36 35165ft 438kts
10-Dec-17 11:51 28.797128 -152.689196 36 35161ft 438kts
10-Dec-17 11:52 28.885324 -152.593304 36 35163ft 438kts
10-Dec-17 11:53 28.973241 -152.497477 36 35169ft 438kts
10-Dec-17 11:54 29.061283 -152.401283 35 35131ft 441kts
10-Dec-17 11:54 29.135373 -152.320146 35 35124ft 447kts
10-Dec-17 11:56 29.240469 -152.204748 36 35202ft 452kts
10-Dec-17 11:57 29.331201 -152.104848 36 35227ft 453kts
10-Dec-17 11:57 29.406875 -152.021331 36 35216ft 453kts
10-Dec-17 11:58 29.497140 -151.921472 35 35191ft 452kts
10-Dec-17 12:00 29.602321 -151.804782 35 35171ft 451kts
10-Dec-17 12:00 29.677507 -151.721150 35 35161ft 451kts
10-Dec-17 12:01 29.767292 -151.621038 36 35162ft 451kts
10-Dec-17 12:02 29.856937 -151.520820 35 35163ft 450kts
10-Dec-17 12:03 29.946477 -151.420451 36 35168ft 450kts
10-Dec-17 12:04 30.035894 -151.319955 36 35165ft 450kts
10-Dec-17 12:05 30.125345 -151.219158 36 35160ft 450kts
10-Dec-17 12:06 30.214863 -151.118009 36 35182ft 450kts
10-Dec-17 12:07 30.304034 -151.016767 36 35194ft 450kts
10-Dec-17 12:08 30.392813 -150.915695 35 35208ft 449kts
10-Dec-17 12:09 30.481613 -150.814329 35 35193ft 448kts
10-Dec-17 12:10 30.570053 -150.713099 35 35182ft 448kts
10-Dec-17 12:11 30.658653 -150.611410 35 35186ft 448kts
10-Dec-17 12:12 30.746771 -150.509999 36 35186ft 448kts
10-Dec-17 12:13 30.835115 -150.408051 35 35191ft 448kts
10-Dec-17 12:14 30.923287 -150.306019 35 35181ft 448kts
10-Dec-17 12:15 31.011206 -150.204010 34 35149ft 450kts
10-Dec-17 12:16 31.099731 -150.101007 34 35168ft 454kts
10-Dec-17 12:17 31.188897 -149.996962 34 35225ft 458kts
10-Dec-17 12:18 31.278732 -149.891835 34 35244ft 459kts
10-Dec-17 12:19 31.368565 -149.786414 34 35231ft 459kts
10-Dec-17 12:20 31.458212 -149.680908 34 35207ft 458kts
10-Dec-17 12:21 31.547740 -149.575240 34 35194ft 457kts
10-Dec-17 12:22 31.636795 -149.469828 34 35185ft 456kts
10-Dec-17 12:23 31.725790 -149.364182 34 35178ft 456kts
10-Dec-17 12:24 31.814693 -149.258337 34 35167ft 455kts
10-Dec-17 12:25 31.903436 -149.152377 34 35170ft 455kts
10-Dec-17 12:26 31.991973 -149.046353 34 35187ft 456kts
10-Dec-17 12:27 32.080582 -148.939925 34 35212ft 455kts
10-Dec-17 12:28 32.168864 -148.833583 33 35236ft 454kts
10-Dec-17 12:29 32.256854 -148.727275 33 35230ft 451kts
10-Dec-17 12:30 32.344183 -148.621464 33 35189ft 450kts
10-Dec-17 12:31 32.431067 -148.515881 33 35178ft 449kts
10-Dec-17 12:32 32.517998 -148.409926 33 35178ft 448kts
10-Dec-17 12:33 32.603841 -148.304988 33 35174ft 448kts
10-Dec-17 12:34 32.690551 -148.198681 33 35176ft 448kts
10-Dec-17 12:35 32.776728 -148.092713 33 35184ft 449kts
10-Dec-17 12:36 32.863414 -147.985798 33 35198ft 449kts
10-Dec-17 12:37 32.949800 -147.878934 33 35204ft 450kts
10-Dec-17 12:38 33.036585 -147.771249 32 35205ft 451kts
10-Dec-17 12:39 33.123063 -147.663630 30 35206ft 452kts
10-Dec-17 12:40 33.210191 -147.554856 30 35224ft 454kts
10-Dec-17 12:41 33.296978 -147.446173 30 35226ft 453kts
10-Dec-17 12:42 33.383596 -147.337371 31 35206ft 452kts
10-Dec-17 12:43 33.469918 -147.228606 31 35165ft 450kts
10-Dec-17 12:44 33.555718 -147.120174 31 35164ft 450kts
10-Dec-17 12:45 33.641242 -147.011735 31 35230ft 446kts
10-Dec-17 12:46 33.725626 -146.904414 30 35252ft 438kts
10-Dec-17 12:47 33.808292 -146.798976 30 35199ft 430kts
10-Dec-17 12:48 33.889502 -146.695090 30 35141ft 426kts
10-Dec-17 12:49 33.970421 -146.591273 30 35138ft 425kts
10-Dec-17 12:50 34.051139 -146.487398 30 35151ft 426kts
10-Dec-17 12:51 34.132103 -146.382897 30 35187ft 429kts
10-Dec-17 12:52 34.213619 -146.277340 30 35218ft 431kts
10-Dec-17 12:53 34.295135 -146.171463 31 35224ft 432kts
10-Dec-17 12:54 34.376715 -146.065194 31 35209ft 432kts
10-Dec-17 12:55 34.458201 -145.958705 31 35204ft 432kts
10-Dec-17 12:56 34.539654 -145.851952 31 35183ft 432kts
10-Dec-17 12:57 34.620787 -145.745266 31 35204ft 431kts
10-Dec-17 12:58 34.701905 -145.638279 31 35194ft 431kts
10-Dec-17 12:59 34.782777 -145.531292 31 35184ft 431kts
10-Dec-17 13:00 34.863824 -145.423727 31 35189ft 432kts
10-Dec-17 13:01 34.944460 -145.316360 31 35198ft 431kts
10-Dec-17 13:02 35.025353 -145.208329 32 35163ft 432kts
10-Dec-17 13:03 35.106586 -145.099474 35 35139ft 439kts
10-Dec-17 13:04 35.189907 -144.987434 38 35145ft 454kts
10-Dec-17 13:05 35.275783 -144.871546 39 35251ft 464kts
10-Dec-17 13:06 35.362332 -144.754374 39 35257ft 466kts
10-Dec-17 13:07 35.449161 -144.636425 39 35253ft 465kts
10-Dec-17 13:08 35.535043 -144.519337 35 35253ft 460kts
10-Dec-17 13:10 35.619895 -144.403281 35 35198ft 454kts
10-Dec-17 13:11 35.703515 -144.288507 36 35140ft 451kts
10-Dec-17 13:12 35.786897 -144.173682 36 35140ft 450kts
10-Dec-17 13:13 35.870221 -144.058535 36 35146ft 451kts
10-Dec-17 13:14 35.953361 -143.943246 36 35182ft 452kts
10-Dec-17 13:15 36.036753 -143.827212 36 35195ft 453kts
10-Dec-17 13:16 36.120433 -143.710369 36 35235ft 454kts
10-Dec-17 13:17 36.204048 -143.593213 36 35364ft 455kts
10-Dec-17 13:18 36.287507 -143.475860 36 35422ft 456kts
10-Dec-17 13:19 36.371061 -143.357958 36 35402ft 454kts
10-Dec-17 13:20 36.453934 -143.240609 36 35367ft 453kts
10-Dec-17 13:21 36.536791 -143.122873 36 35359ft 453kts
10-Dec-17 13:22 36.619324 -143.005182 37 35360ft 454kts
10-Dec-17 13:23 36.702543 -142.886088 39 35333ft 459kts
10-Dec-17 13:24 36.786661 -142.765252 41 35366ft 466kts
10-Dec-17 13:25 36.871742 -142.642594 41 35431ft 470kts
10-Dec-17 13:26 36.956826 -142.519476 41 35443ft 470kts
10-Dec-17 13:27 37.042503 -142.395045 44 35349ft 476kts
10-Dec-17 13:28 37.129209 -142.268611 47 35376ft 482kts
10-Dec-17 13:29 37.216369 -142.141053 47 35435ft 483kts
10-Dec-17 13:30 37.303339 -142.013270 47 35426ft 482kts
10-Dec-17 13:31 37.390122 -141.885261 47 35404ft 482kts
10-Dec-17 13:32 37.476681 -141.757085 47 35385ft 481kts
10-Dec-17 13:33 37.562857 -141.628977 47 35380ft 481kts
10-Dec-17 13:34 37.649219 -141.500103 47 35381ft 481kts
10-Dec-17 13:35 37.735338 -141.371066 47 35384ft 481kts
10-Dec-17 13:36 37.820940 -141.242305 48 35404ft 478kts
10-Dec-17 13:37 37.906083 -141.113717 48 35377ft 477kts
10-Dec-17 13:38 37.991742 -140.983807 51 35313ft 489kts
10-Dec-17 13:39 38.080071 -140.849230 57 35395ft 505kts
10-Dec-17 13:40 38.169493 -140.712634 57 35394ft 504kts
10-Dec-17 13:41 38.259063 -140.575122 57 35396ft 505kts
10-Dec-17 13:42 38.348305 -140.437507 57 35390ft 506kts
10-Dec-17 13:43 38.437575 -140.299288 58 35424ft 506kts
10-Dec-17 13:44 38.526560 -140.160906 58 35408ft 505kts
10-Dec-17 13:45 38.615169 -140.022507 58 35392ft 505kts
10-Dec-17 13:46 38.703659 -139.883696 58 35387ft 505kts
10-Dec-17 13:47 38.792359 -139.743952 58 35393ft 506kts
10-Dec-17 13:48 38.880655 -139.604243 58 35399ft 506kts
10-Dec-17 13:49 38.969203 -139.463515 60 35396ft 507kts
10-Dec-17 13:50 39.056993 -139.323391 63 35415ft 505kts
10-Dec-17 13:51 39.144881 -139.182454 63 35601ft 506kts
10-Dec-17 13:52 39.231647 -139.042860 63 36615ft 493kts
10-Dec-17 13:53 39.316287 -138.905950 63 36513ft 483kts
10-Dec-17 13:54 39.399169 -138.771206 63 35392ft 484kts
10-Dec-17 13:55 39.482656 -138.635022 63 35383ft 483kts
10-Dec-17 13:56 39.565482 -138.499344 63 35381ft 480kts
10-Dec-17 13:57 39.648138 -138.363307 63 35400ft 481kts
10-Dec-17 13:58 39.730138 -138.227801 64 35408ft 482kts
10-Dec-17 13:59 39.812691 -138.090776 64 35402ft 482kts
10-Dec-17 14:00 39.894805 -137.953740 64 35389ft 481kts
10-Dec-17 14:01 39.976652 -137.816562 64 35417ft 482kts
10-Dec-17 14:02 40.059007 -137.677943 64 36122ft 483kts
10-Dec-17 14:03 40.141022 -137.539254 64 36651ft 485kts
10-Dec-17 14:04 40.223042 -137.399953 64 36987ft 487kts
10-Dec-17 14:05 40.305453 -137.259407 64 37395ft 486kts
10-Dec-17 14:06 40.387455 -137.118897 65 37397ft 485kts
10-Dec-17 14:06 40.455716 -137.001415 64 37393ft 486kts
10-Dec-17 14:08 40.551937 -136.834972 61 37394ft 498kts
10-Dec-17 14:09 40.635970 -136.689012 61 37432ft 505kts
10-Dec-17 14:10 40.720721 -136.541138 61 37393ft 505kts
10-Dec-17 14:10 40.790637 -136.418592 61 37390ft 504kts
10-Dec-17 14:12 40.888747 -136.245758 62 37389ft 503kts
10-Dec-17 14:12 40.958303 -136.122644 62 37396ft 502kts
10-Dec-17 14:13 41.041525 -135.974688 62 37391ft 502kts
10-Dec-17 14:14 41.123639 -135.828021 62 37395ft 501kts
10-Dec-17 14:16 41.219720 -135.655510 62 37369ft 498kts
10-Dec-17 14:16 41.288193 -135.531988 62 37363ft 499kts
10-Dec-17 14:17 41.370194 -135.383241 62 37380ft 499kts
10-Dec-17 14:18 41.452131 -135.234045 63 37399ft 500kts
10-Dec-17 14:19 41.533595 -135.084977 62 37400ft 500kts
10-Dec-17 14:20 41.615163 -134.934985 61 37406ft 499kts
10-Dec-17 14:21 41.696141 -134.785346 60 37407ft 497kts
10-Dec-17 14:22 41.776839 -134.635466 60 37389ft 496kts
10-Dec-17 14:23 41.857273 -134.485338 60 37381ft 496kts
10-Dec-17 14:24 41.937336 -134.335168 61 37385ft 496kts
10-Dec-17 14:25 42.017294 -134.184450 61 37391ft 496kts
10-Dec-17 14:26 42.096880 -134.033680 61 37388ft 495kts
10-Dec-17 14:27 42.176087 -133.882893 61 37376ft 494kts
10-Dec-17 14:28 42.254357 -133.730925 62 37373ft 493kts
10-Dec-17 14:29 42.333789 -133.579819 61 37378ft 495kts
10-Dec-17 14:30 42.412617 -133.427977 61 37394ft 495kts
10-Dec-17 14:31 42.491111 -133.275528 62 37399ft 495kts
10-Dec-17 14:32 42.569538 -133.122401 61 37406ft 494kts
10-Dec-17 14:33 42.647525 -132.969368 60 37422ft 491kts
10-Dec-17 14:34 42.724636 -132.817253 60 37397ft 489kts
10-Dec-17 14:35 42.801248 -132.665333 60 37372ft 487kts
10-Dec-17 14:36 42.877541 -132.513281 60 37371ft 487kts
10-Dec-17 14:37 42.953646 -132.360831 60 37379ft 488kts
10-Dec-17 14:38 43.029693 -132.207718 60 37394ft 489kts
10-Dec-17 14:39 43.105924 -132.053442 60 37400ft 489kts
10-Dec-17 14:40 43.181598 -131.899502 61 37397ft 489kts
10-Dec-17 14:41 43.257253 -131.744776 60 37391ft 489kts
10-Dec-17 14:42 43.332516 -131.590076 60 37398ft 489kts
10-Dec-17 14:43 43.407647 -131.434808 61 37403ft 489kts
10-Dec-17 14:44 43.482561 -131.279164 61 37407ft 489kts
10-Dec-17 14:45 43.557479 -131.122688 61 37405ft 489kts
10-Dec-17 14:46 43.631911 -130.966395 61 37409ft 488kts
10-Dec-17 14:47 43.706099 -130.809800 60 37427ft 485kts
10-Dec-17 14:48 43.779300 -130.654447 60 37404ft 482kts
10-Dec-17 14:49 43.852021 -130.499264 60 37380ft 482kts
10-Dec-17 14:50 43.924714 -130.343319 61 37381ft 482kts
10-Dec-17 14:51 43.996945 -130.187543 61 37393ft 481kts
10-Dec-17 14:52 44.069252 -130.030758 61 37396ft 482kts
10-Dec-17 14:53 44.141026 -129.874153 61 37397ft 481kts
10-Dec-17 14:54 44.212509 -129.717249 61 37392ft 481kts
10-Dec-17 14:55 44.283737 -129.560049 61 37396ft 481kts
10-Dec-17 14:56 44.355066 -129.401769 61 37399ft 481kts
10-Dec-17 14:57 44.425938 -129.243641 62 37407ft 481kts
10-Dec-17 14:58 44.496805 -129.084646 62 37408ft 481kts
10-Dec-17 14:59 44.566887 -128.926575 62 37450ft 476kts
10-Dec-17 15:00 44.635842 -128.770171 61 37423ft 470kts
10-Dec-17 15:01 44.704201 -128.614244 62 37377ft 468kts
10-Dec-17 15:02 44.771939 -128.458889 61 37378ft 467kts
10-Dec-17 15:03 44.838827 -128.304647 62 37397ft 468kts
10-Dec-17 15:04 44.906460 -128.147837 62 37414ft 468kts
10-Dec-17 15:05 44.973715 -127.991042 62 37422ft 469kts
10-Dec-17 15:06 45.041068 -127.833114 62 37386ft 473kts
10-Dec-17 15:07 45.109227 -127.672390 62 37379ft 480kts
10-Dec-17 15:08 45.177922 -127.509508 62 37423ft 486kts
10-Dec-17 15:09 45.246920 -127.344976 63 37459ft 488kts
10-Dec-17 15:10 45.316010 -127.179247 63 37457ft 487kts
10-Dec-17 15:11 45.384374 -127.014293 61 37433ft 483kts
10-Dec-17 15:12 45.451245 -126.852019 61 37405ft 473kts
10-Dec-17 15:13 45.519540 -126.693904 52 37396ft 468kts
10-Dec-17 15:14 45.600889 -126.549185 52 37396ft 469kts
10-Dec-17 15:15 45.682159 -126.403858 52 37396ft 470kts
10-Dec-17 15:16 45.762854 -126.258831 53 37398ft 470kts
10-Dec-17 15:17 45.844018 -126.112201 53 37396ft 469kts
10-Dec-17 15:19 45.924763 -125.965565 53 37395ft 469kts
10-Dec-17 15:20 46.005326 -125.818492 53 37396ft 470kts
10-Dec-17 15:21 46.085661 -125.671061 53 37397ft 470kts
10-Dec-17 15:22 46.166072 -125.522711 53 37393ft 469kts
10-Dec-17 15:23 46.245943 -125.374570 53 37390ft 469kts
10-Dec-17 15:24 46.325543 -125.226146 54 37395ft 469kts
10-Dec-17 15:25 46.402703 -125.074538 65 37396ft 467kts
10-Dec-17 15:26 46.439968 -124.895992 76 37411ft 464kts
10-Dec-17 15:27 46.472760 -124.715185 75 37436ft 462kts
10-Dec-17 15:28 46.504949 -124.535746 75 37416ft 460kts
10-Dec-17 15:29 46.536775 -124.356489 75 37405ft 459kts
10-Dec-17 15:30 46.567401 -124.182291 76 37409ft 459kts
10-Dec-17 15:31 46.598729 -124.002648 75 37206ft 461kts
10-Dec-17 15:32 46.630210 -123.822646 76 36500ft 459kts
10-Dec-17 15:33 46.658403 -123.642346 78 32300ft 460kts
10-Dec-17 15:34 46.684256 -123.461879 78 27266ft 458kts
10-Dec-17 15:35 46.709499 -123.283643 79 21846ft 445kts
10-Dec-17 15:36 46.733242 -123.114301 80 17614ft 408kts
10-Dec-17 15:37 46.755427 -122.953731 79 15072ft 399kts
10-Dec-17 15:38 46.778675 -122.802802 72 13438ft 359kts
10-Dec-17 15:39 46.826367 -122.690235 39 12149ft 330kts
10-Dec-17 15:40 46.893258 -122.601132 42 10579ft 318kts
10-Dec-17 15:41 46.953019 -122.513303 44 9431ft 298kts
10-Dec-17 15:42 47.014485 -122.441487 27 7886ft 277kts
10-Dec-17 15:43 47.080485 -122.385726 28 6497ft 271kts
10-Dec-17 15:44 47.142426 -122.333143 29 5810ft 247kts
10-Dec-17 15:45 47.202128 -122.309936 0 4503ft 224kts
10-Dec-17 15:46 47.262143 -122.309558 0 3432ft 208kts
10-Dec-17 15:47 47.313579 -122.309092 0 2576ft 165kts
10-Dec-17 15:48 47.355064 -122.308723 359 1808ft 134kts
10-Dec-17 15:49 47.390740 -122.308404 359 1195ft 133kts
10-Dec-17 15:50 47.427470 -122.308104 359 555ft 131kts
10-Dec-17 15:51 47.449591 -122.307784 15 442ft 21kts
10-Dec-17 15:52 47.448165 -122.305379 112 442ft 15kts
10-Dec-17 15:53 47.445640 -122.302418 201 442ft 8kts
10-Dec-17 15:54 47.444927 -122.302301 162 442ft 0kts
10-Dec-17 15:55 47.444927 -122.302301 163 442ft 0kts
10-Dec-17 15:56 47.444927 -122.302301 163 442ft 0kts
10-Dec-17 15:57 47.444927 -122.302301 163 442ft 0kts
10-Dec-17 15:58 47.444927 -122.302301 163 442ft 0kts

Navigation Log

Ident Type
Flight plan parsing failed, navigation log unavailable